Terminal Aerodrome Forecast
Issued by NWS Northern Indiana

Home | Current Version | Previous Version | Text Only | Print | Product List | Glossary Off
Versions: 1 2 3 4 5 6 7 8 9 10 11 12 13 14 15 16 17 18 19 20 21 22 23 24 25 26 27

000
FTUS43 KIWX 212300
TAFFWA
TAF
KFWA 212340Z 2200/2224 17006KT P6SM VCTS BKN070CB
      TEMPO 2200/2203 3SM TSRA BKN025CB
     FM220400 20004KT 4SM BR BKN050
      TEMPO 2206/2209 3SM -SHRA BR BKN035
     FM221100 23003KT 4SM BR BKN035
     FM221400 24006KT P6SM BKN050=

USA.gov is the U.S. government's official web portal to all federal, state and local government web resources and services.